sensor_id;sensor_type;location;lat;lon;timestamp;pressure;altitude;pressure_sealevel;temperature;humidity
44453;BME280;30155;52.164;21.236;2023-03-26T00:01:23;99268.10;;;6.07;79.18
44453;BME280;30155;52.164;21.236;2023-03-26T00:06:16;99262.45;;;6.09;79.30
44453;BME280;30155;52.164;21.236;2023-03-26T00:11:10;99265.21;;;6.11;79.31
44453;BME280;30155;52.164;21.236;2023-03-26T00:16:04;99267.33;;;6.15;79.56
44453;BME280;30155;52.164;21.236;2023-03-26T00:20:58;99262.02;;;6.18;79.80
44453;BME280;30155;52.164;21.236;2023-03-26T00:25:52;99256.05;;;6.22;79.82
44453;BME280;30155;52.164;21.236;2023-03-26T00:30:45;99256.39;;;6.22;79.82
44453;BME280;30155;52.164;21.236;2023-03-26T00:35:38;99247.93;;;6.19;79.89
44453;BME280;30155;52.164;21.236;2023-03-26T00:40:34;99242.84;;;6.10;79.86
44453;BME280;30155;52.164;21.236;2023-03-26T00:45:27;99251.28;;;5.97;79.76
44453;BME280;30155;52.164;21.236;2023-03-26T00:50:20;99249.19;;;5.83;79.71
44453;BME280;30155;52.164;21.236;2023-03-26T00:55:12;99246.48;;;5.72;79.52
44453;BME280;30155;52.164;21.236;2023-03-26T01:00:09;99242.22;;;5.62;79.85
44453;BME280;30155;52.164;21.236;2023-03-26T01:10:25;99240.49;;;5.48;79.49
44453;BME280;30155;52.164;21.236;2023-03-26T01:15:18;99243.61;;;5.38;79.52
44453;BME280;30155;52.164;21.236;2023-03-26T01:20:19;99244.02;;;5.31;79.49
44453;BME280;30155;52.164;21.236;2023-03-26T01:25:17;99238.98;;;5.27;79.83
44453;BME280;30155;52.164;21.236;2023-03-26T01:30:33;99230.95;;;5.29;79.98
44453;BME280;30155;52.164;21.236;2023-03-26T01:40:34;99222.54;;;5.30;80.04
44453;BME280;30155;52.164;21.236;2023-03-26T01:45:35;99217.82;;;5.25;79.96
44453;BME280;30155;52.164;21.236;2023-03-26T01:50:30;99210.88;;;5.20;80.11
44453;BME280;30155;52.164;21.236;2023-03-26T01:55:32;99207.88;;;5.15;79.84
44453;BME280;30155;52.164;21.236;2023-03-26T02:00:31;99209.34;;;5.08;80.16
44453;BME280;30155;52.164;21.236;2023-03-26T02:05:41;99209.47;;;5.06;80.24
44453;BME280;30155;52.164;21.236;2023-03-26T02:10:40;99205.01;;;5.06;80.33
44453;BME280;30155;52.164;21.236;2023-03-26T02:15:34;99194.05;;;5.08;80.39
44453;BME280;30155;52.164;21.236;2023-03-26T02:20:27;99196.33;;;5.11;80.48
44453;BME280;30155;52.164;21.236;2023-03-26T02:25:21;99192.09;;;5.16;80.56
44453;BME280;30155;52.164;21.236;2023-03-26T02:30:21;99188.36;;;5.20;80.64
44453;BME280;30155;52.164;21.236;2023-03-26T02:35:20;99185.36;;;5.26;80.76
44453;BME280;30155;52.164;21.236;2023-03-26T02:40:17;99179.41;;;5.29;80.75
44453;BME280;30155;52.164;21.236;2023-03-26T02:45:12;99177.18;;;5.30;80.72
44453;BME280;30155;52.164;21.236;2023-03-26T02:50:24;99172.89;;;5.30;80.85
44453;BME280;30155;52.164;21.236;2023-03-26T02:55:46;99179.54;;;5.27;80.56
44453;BME280;30155;52.164;21.236;2023-03-26T03:00:41;99187.84;;;5.19;80.54
44453;BME280;30155;52.164;21.236;2023-03-26T03:05:53;99190.21;;;5.16;80.80
44453;BME280;30155;52.164;21.236;2023-03-26T03:11:15;99186.98;;;5.19;80.89
44453;BME280;30155;52.164;21.236;2023-03-26T03:16:13;99189.12;;;5.24;81.03
44453;BME280;30155;52.164;21.236;2023-03-26T03:21:06;99191.94;;;5.28;80.95
44453;BME280;30155;52.164;21.236;2023-03-26T03:25:59;99193.34;;;5.30;80.99
44453;BME280;30155;52.164;21.236;2023-03-26T03:30:53;99196.93;;;5.29;81.07
44453;BME280;30155;52.164;21.236;2023-03-26T03:35:55;99196.74;;;5.28;81.21
44453;BME280;30155;52.164;21.236;2023-03-26T03:40:50;99196.38;;;5.27;81.26
44453;BME280;30155;52.164;21.236;2023-03-26T03:45:47;99195.21;;;5.29;81.65
44453;BME280;30155;52.164;21.236;2023-03-26T03:51:00;99192.54;;;5.35;81.63
44453;BME280;30155;52.164;21.236;2023-03-26T03:56:14;99195.17;;;5.40;81.67
44453;BME280;30155;52.164;21.236;2023-03-26T04:01:28;99193.36;;;5.45;81.69
44453;BME280;30155;52.164;21.236;2023-03-26T04:06:25;99190.99;;;5.48;81.69
44453;BME280;30155;52.164;21.236;2023-03-26T04:11:21;99191.49;;;5.47;81.86
44453;BME280;30155;52.164;21.236;2023-03-26T04:16:40;99189.11;;;5.50;82.09
44453;BME280;30155;52.164;21.236;2023-03-26T04:21:33;99190.58;;;5.56;82.15
44453;BME280;30155;52.164;21.236;2023-03-26T04:26:29;99188.92;;;5.61;82.20
44453;BME280;30155;52.164;21.236;2023-03-26T04:31:28;99179.71;;;5.67;82.09
44453;BME280;30155;52.164;21.236;2023-03-26T04:36:26;99172.55;;;5.71;82.13
44453;BME280;30155;52.164;21.236;2023-03-26T04:41:20;99172.10;;;5.78;82.28
44453;BME280;30155;52.164;21.236;2023-03-26T04:46:24;99171.13;;;5.84;82.23
44453;BME280;30155;52.164;21.236;2023-03-26T04:51:35;99172.42;;;5.91;82.07
44453;BME280;30155;52.164;21.236;2023-03-26T05:01:52;99174.50;;;6.05;81.98
44453;BME280;30155;52.164;21.236;2023-03-26T05:06:46;99171.98;;;6.11;81.89
44453;BME280;30155;52.164;21.236;2023-03-26T05:11:45;99171.69;;;6.17;81.81
44453;BME280;30155;52.164;21.236;2023-03-26T05:16:38;99171.76;;;6.23;81.61
44453;BME280;30155;52.164;21.236;2023-03-26T05:21:33;99170.96;;;6.31;81.45
44453;BME280;30155;52.164;21.236;2023-03-26T05:26:26;99171.74;;;6.40;81.47
44453;BME280;30155;52.164;21.236;2023-03-26T05:31:20;99166.15;;;6.51;81.16
44453;BME280;30155;52.164;21.236;2023-03-26T05:36:15;99161.14;;;6.70;80.70
44453;BME280;30155;52.164;21.236;2023-03-26T05:41:19;99161.60;;;6.86;80.22
44453;BME280;30155;52.164;21.236;2023-03-26T05:46:13;99158.39;;;6.94;80.05
44453;BME280;30155;52.164;21.236;2023-03-26T05:51:07;99162.59;;;7.03;79.83
44453;BME280;30155;52.164;21.236;2023-03-26T05:56:03;99160.75;;;7.12;79.71
44453;BME280;30155;52.164;21.236;2023-03-26T06:01:14;99161.80;;;7.16;79.21
44453;BME280;30155;52.164;21.236;2023-03-26T06:06:30;99158.71;;;7.20;79.06
44453;BME280;30155;52.164;21.236;2023-03-26T06:11:24;99164.10;;;7.26;78.81
44453;BME280;30155;52.164;21.236;2023-03-26T06:16:17;99159.16;;;7.38;78.48
44453;BME280;30155;52.164;21.236;2023-03-26T06:21:32;99156.83;;;7.59;78.06
44453;BME280;30155;52.164;21.236;2023-03-26T06:26:41;99164.02;;;7.91;77.65
44453;BME280;30155;52.164;21.236;2023-03-26T06:31:54;99164.27;;;8.24;77.16
44453;BME280;30155;52.164;21.236;2023-03-26T06:37:06;99166.00;;;8.25;76.79
44453;BME280;30155;52.164;21.236;2023-03-26T06:41:59;99164.44;;;8.26;77.04
44453;BME280;30155;52.164;21.236;2023-03-26T06:47:05;99168.23;;;8.11;76.56
44453;BME280;30155;52.164;21.236;2023-03-26T06:52:13;99173.33;;;7.88;77.08
44453;BME280;30155;52.164;21.236;2023-03-26T06:57:09;99172.92;;;7.74;77.36
44453;BME280;30155;52.164;21.236;2023-03-26T07:02:21;99177.05;;;7.65;77.92
44453;BME280;30155;52.164;21.236;2023-03-26T07:07:40;99176.70;;;7.65;78.26
44453;BME280;30155;52.164;21.236;2023-03-26T07:13:06;99175.27;;;7.54;78.68
44453;BME280;30155;52.164;21.236;2023-03-26T07:18:31;99180.59;;;7.50;79.43
44453;BME280;30155;52.164;21.236;2023-03-26T07:23:26;99171.98;;;7.51;79.53
44453;BME280;30155;52.164;21.236;2023-03-26T07:28:42;99167.50;;;8.03;79.11
44453;BME280;30155;52.164;21.236;2023-03-26T07:34:36;99170.04;;;8.59;78.31
44453;BME280;30155;52.164;21.236;2023-03-26T07:39:55;99168.59;;;9.11;78.02
44453;BME280;30155;52.164;21.236;2023-03-26T07:50:24;99149.52;;;13.38;71.13
44453;BME280;30155;52.164;21.236;2023-03-26T07:55:23;99141.23;;;15.13;68.53
44453;BME280;30155;52.164;21.236;2023-03-26T08:00:41;99134.55;;;15.29;67.61
44453;BME280;30155;52.164;21.236;2023-03-26T08:05:46;99134.48;;;15.44;67.03
44453;BME280;30155;52.164;21.236;2023-03-26T08:11:13;99136.48;;;14.23;67.52
44453;BME280;30155;52.164;21.236;2023-03-26T08:21:18;99140.53;;;12.02;68.58
44453;BME280;30155;52.164;21.236;2023-03-26T08:26:23;99140.70;;;11.48;69.05
44453;BME280;30155;52.164;21.236;2023-03-26T08:31:35;99144.40;;;11.12;69.21
44453;BME280;30155;52.164;21.236;2023-03-26T08:36:29;99136.98;;;11.08;69.09
44453;BME280;30155;52.164;21.236;2023-03-26T09:02:29;99134.05;;;11.07;69.69
44453;BME280;30155;52.164;21.236;2023-03-26T09:39:29;99119.03;;;11.73;66.65
44453;BME280;30155;52.164;21.236;2023-03-26T09:55:06;99111.95;;;11.96;68.76
44453;BME280;30155;52.164;21.236;2023-03-26T10:00:26;99104.52;;;12.19;68.46
44453;BME280;30155;52.164;21.236;2023-03-26T10:05:39;99100.92;;;11.93;68.49
44453;BME280;30155;52.164;21.236;2023-03-26T10:15:46;99100.32;;;11.30;68.59
44453;BME280;30155;52.164;21.236;2023-03-26T10:26:07;99089.51;;;10.70;68.64
44453;BME280;30155;52.164;21.236;2023-03-26T10:31:25;99085.96;;;11.25;68.43
44453;BME280;30155;52.164;21.236;2023-03-26T10:36:31;99077.16;;;11.37;67.44
44453;BME280;30155;52.164;21.236;2023-03-26T10:46:35;99098.60;;;11.24;67.36
44453;BME280;30155;52.164;21.236;2023-03-26T11:02:37;99060.49;;;17.65;59.24
44453;BME280;30155;52.164;21.236;2023-03-26T11:08:09;99067.39;;;15.68;61.26
44453;BME280;30155;52.164;21.236;2023-03-26T11:18:26;99102.86;;;12.67;62.97
44453;BME280;30155;52.164;21.236;2023-03-26T11:33:40;99084.12;;;12.01;65.52
44453;BME280;30155;52.164;21.236;2023-03-26T11:38:57;99083.05;;;11.90;65.05
44453;BME280;30155;52.164;21.236;2023-03-26T11:44:00;99076.31;;;11.88;64.95
44453;BME280;30155;52.164;21.236;2023-03-26T11:48:58;99075.58;;;12.26;64.67
44453;BME280;30155;52.164;21.236;2023-03-26T11:53:51;99067.83;;;12.83;63.33
44453;BME280;30155;52.164;21.236;2023-03-26T11:58:52;99064.17;;;12.92;63.35
44453;BME280;30155;52.164;21.236;2023-03-26T12:04:04;99064.83;;;12.94;62.90
44453;BME280;30155;52.164;21.236;2023-03-26T12:08:58;99062.41;;;12.84;61.64
44453;BME280;30155;52.164;21.236;2023-03-26T12:13:55;99058.18;;;12.96;61.04
44453;BME280;30155;52.164;21.236;2023-03-26T12:25:23;99061.05;;;12.54;61.28
44453;BME280;30155;52.164;21.236;2023-03-26T12:30:22;99056.60;;;13.15;60.69
44453;BME280;30155;52.164;21.236;2023-03-26T12:35:24;99059.06;;;13.05;60.06
44453;BME280;30155;52.164;21.236;2023-03-26T12:45:21;99067.84;;;12.73;59.63
44453;BME280;30155;52.164;21.236;2023-03-26T12:50:15;99062.78;;;12.53;59.79
44453;BME280;30155;52.164;21.236;2023-03-26T13:15:36;99058.67;;;11.95;60.77
44453;BME280;30155;52.164;21.236;2023-03-26T13:20:45;99062.35;;;11.93;60.84
44453;BME280;30155;52.164;21.236;2023-03-26T13:30:56;99089.89;;;11.01;62.87
44453;BME280;30155;52.164;21.236;2023-03-26T13:46:33;99077.45;;;11.55;65.60
44453;BME280;30155;52.164;21.236;2023-03-26T13:51:38;99076.92;;;11.69;65.59
44453;BME280;30155;52.164;21.236;2023-03-26T13:56:39;99072.66;;;12.35;65.01
44453;BME280;30155;52.164;21.236;2023-03-26T14:01:38;99069.81;;;12.79;63.66
44453;BME280;30155;52.164;21.236;2023-03-26T14:16:38;99070.77;;;11.87;62.44
44453;BME280;30155;52.164;21.236;2023-03-26T14:27:04;99060.26;;;11.43;64.38
44453;BME280;30155;52.164;21.236;2023-03-26T14:37:26;99057.86;;;12.03;63.25
44453;BME280;30155;52.164;21.236;2023-03-26T14:42:49;99055.98;;;12.13;61.96
44453;BME280;30155;52.164;21.236;2023-03-26T14:53:35;99053.11;;;12.60;60.96
44453;BME280;30155;52.164;21.236;2023-03-26T15:20:40;99059.79;;;12.25;58.89
44453;BME280;30155;52.164;21.236;2023-03-26T16:02:40;99084.20;;;11.14;59.18
44453;BME280;30155;52.164;21.236;2023-03-26T16:07:48;99097.60;;;10.94;59.39
44453;BME280;30155;52.164;21.236;2023-03-26T16:23:02;99102.21;;;10.44;60.49
44453;BME280;30155;52.164;21.236;2023-03-26T16:33:21;99102.84;;;10.02;61.30
44453;BME280;30155;52.164;21.236;2023-03-26T16:38:52;99102.64;;;9.78;61.70
44453;BME280;30155;52.164;21.236;2023-03-26T16:43:50;99105.32;;;9.61;62.05
44453;BME280;30155;52.164;21.236;2023-03-26T16:59:51;99120.55;;;9.17;62.99
44453;BME280;30155;52.164;21.236;2023-03-26T17:05:16;99128.89;;;9.00;63.51
44453;BME280;30155;52.164;21.236;2023-03-26T17:10:24;99135.98;;;8.81;63.91
44453;BME280;30155;52.164;21.236;2023-03-26T17:35:44;99148.80;;;7.75;65.69
44453;BME280;30155;52.164;21.236;2023-03-26T17:40:53;99151.83;;;7.55;65.78
44453;BME280;30155;52.164;21.236;2023-03-26T17:45:51;99153.98;;;7.38;66.42
44453;BME280;30155;52.164;21.236;2023-03-26T17:51:02;99149.77;;;7.20;66.70
44453;BME280;30155;52.164;21.236;2023-03-26T17:56:02;99147.77;;;7.03;67.14
44453;BME280;30155;52.164;21.236;2023-03-26T18:01:31;99143.89;;;6.89;67.29
44453;BME280;30155;52.164;21.236;2023-03-26T18:07:28;99150.14;;;6.73;67.74
44453;BME280;30155;52.164;21.236;2023-03-26T18:12:01;99151.07;;;6.58;67.87
44453;BME280;30155;52.164;21.236;2023-03-26T18:17:00;99146.46;;;6.43;68.24
44453;BME280;30155;52.164;21.236;2023-03-26T18:21:58;99148.57;;;6.28;68.21
44453;BME280;30155;52.164;21.236;2023-03-26T18:27:07;99151.40;;;6.20;68.86
44453;BME280;30155;52.164;21.236;2023-03-26T18:37:28;99161.05;;;5.88;69.40
44453;BME280;30155;52.164;21.236;2023-03-26T18:42:22;99160.38;;;5.75;69.56
44453;BME280;30155;52.164;21.236;2023-03-26T18:47:17;99161.95;;;5.62;69.57
44453;BME280;30155;52.164;21.236;2023-03-26T18:52:14;99165.41;;;5.49;69.60
44453;BME280;30155;52.164;21.236;2023-03-26T18:57:14;99160.28;;;5.39;69.99
44453;BME280;30155;52.164;21.236;2023-03-26T19:02:12;99151.41;;;5.30;70.13
44453;BME280;30155;52.164;21.236;2023-03-26T19:07:10;99140.77;;;5.18;70.18
44453;BME280;30155;52.164;21.236;2023-03-26T19:12:12;99137.52;;;5.06;70.37
44453;BME280;30155;52.164;21.236;2023-03-26T19:17:07;99131.91;;;4.98;70.53
44453;BME280;30155;52.164;21.236;2023-03-26T19:22:00;99127.66;;;4.89;70.60
44453;BME280;30155;52.164;21.236;2023-03-26T19:26:54;99122.67;;;4.76;70.66
44453;BME280;30155;52.164;21.236;2023-03-26T19:31:51;99115.80;;;4.65;70.68
44453;BME280;30155;52.164;21.236;2023-03-26T19:37:01;99115.27;;;4.52;70.86
44453;BME280;30155;52.164;21.236;2023-03-26T19:41:54;99111.86;;;4.43;70.98
44453;BME280;30155;52.164;21.236;2023-03-26T19:46:47;99102.83;;;4.36;71.30
44453;BME280;30155;52.164;21.236;2023-03-26T19:51:46;99101.26;;;4.24;71.16
44453;BME280;30155;52.164;21.236;2023-03-26T19:56:42;99099.75;;;4.15;71.45
44453;BME280;30155;52.164;21.236;2023-03-26T20:01:36;99100.37;;;4.12;71.60
44453;BME280;30155;52.164;21.236;2023-03-26T20:06:29;99095.98;;;4.06;71.62
44453;BME280;30155;52.164;21.236;2023-03-26T20:11:37;99085.74;;;3.98;71.64
44453;BME280;30155;52.164;21.236;2023-03-26T20:16:32;99079.60;;;3.90;71.63
44453;BME280;30155;52.164;21.236;2023-03-26T20:21:25;99079.98;;;3.82;71.60
44453;BME280;30155;52.164;21.236;2023-03-26T20:26:19;99078.25;;;3.71;71.81
44453;BME280;30155;52.164;21.236;2023-03-26T20:31:18;99078.33;;;3.67;72.25
44453;BME280;30155;52.164;21.236;2023-03-26T20:36:13;99072.96;;;3.64;72.46
44453;BME280;30155;52.164;21.236;2023-03-26T20:41:28;99078.30;;;3.56;72.22
44453;BME280;30155;52.164;21.236;2023-03-26T20:46:24;99077.81;;;3.49;72.23
44453;BME280;30155;52.164;21.236;2023-03-26T20:51:22;99072.83;;;3.38;72.57
44453;BME280;30155;52.164;21.236;2023-03-26T20:56:17;99080.52;;;3.30;72.49
44453;BME280;30155;52.164;21.236;2023-03-26T21:01:12;99080.24;;;3.24;72.77
44453;BME280;30155;52.164;21.236;2023-03-26T21:06:10;99084.39;;;3.18;72.80
44453;BME280;30155;52.164;21.236;2023-03-26T21:16:17;99083.73;;;3.02;72.82
44453;BME280;30155;52.164;21.236;2023-03-26T21:27:01;99089.06;;;2.87;73.05
44453;BME280;30155;52.164;21.236;2023-03-26T21:31:57;99094.15;;;2.84;73.34
44453;BME280;30155;52.164;21.236;2023-03-26T21:36:51;99093.74;;;2.82;73.21
44453;BME280;30155;52.164;21.236;2023-03-26T21:41:47;99086.72;;;2.82;73.36
44453;BME280;30155;52.164;21.236;2023-03-26T21:46:56;99085.99;;;2.79;73.29
44453;BME280;30155;52.164;21.236;2023-03-26T21:51:49;99080.67;;;2.79;73.35
44453;BME280;30155;52.164;21.236;2023-03-26T21:56:49;99079.22;;;2.83;73.64
44453;BME280;30155;52.164;21.236;2023-03-26T22:07:12;99065.31;;;2.73;73.39
44453;BME280;30155;52.164;21.236;2023-03-26T22:12:06;99066.14;;;2.64;73.58
44453;BME280;30155;52.164;21.236;2023-03-26T22:17:01;99069.21;;;2.56;73.47
44453;BME280;30155;52.164;21.236;2023-03-26T22:21:54;99068.55;;;2.50;73.89
44453;BME280;30155;52.164;21.236;2023-03-26T22:26:48;99067.11;;;2.39;73.51
44453;BME280;30155;52.164;21.236;2023-03-26T22:31:41;99065.06;;;2.31;73.72
44453;BME280;30155;52.164;21.236;2023-03-26T22:36:36;99067.32;;;2.25;74.00
44453;BME280;30155;52.164;21.236;2023-03-26T22:41:30;99066.13;;;2.19;73.72
44453;BME280;30155;52.164;21.236;2023-03-26T22:46:23;99064.91;;;2.11;74.01
44453;BME280;30155;52.164;21.236;2023-03-26T22:51:17;99068.31;;;2.03;73.99
44453;BME280;30155;52.164;21.236;2023-03-26T22:56:11;99066.71;;;2.01;74.02
44453;BME280;30155;52.164;21.236;2023-03-26T23:01:12;99066.21;;;2.01;74.32
44453;BME280;30155;52.164;21.236;2023-03-26T23:06:08;99064.38;;;2.03;74.06
44453;BME280;30155;52.164;21.236;2023-03-26T23:11:20;99056.73;;;2.05;74.11
44453;BME280;30155;52.164;21.236;2023-03-26T23:16:14;99053.91;;;2.02;74.31
44453;BME280;30155;52.164;21.236;2023-03-26T23:21:19;99051.48;;;2.00;74.32
44453;BME280;30155;52.164;21.236;2023-03-26T23:26:12;99043.83;;;2.01;74.77
44453;BME280;30155;52.164;21.236;2023-03-26T23:31:07;99045.89;;;2.03;74.52
44453;BME280;30155;52.164;21.236;2023-03-26T23:36:02;99049.27;;;2.07;74.52
44453;BME280;30155;52.164;21.236;2023-03-26T23:40:59;99056.64;;;2.08;74.46
44453;BME280;30155;52.164;21.236;2023-03-26T23:45:52;99061.52;;;2.05;74.62
44453;BME280;30155;52.164;21.236;2023-03-26T23:50:51;99058.70;;;2.02;74.65
44453;BME280;30155;52.164;21.236;2023-03-26T23:55:54;99060.02;;;2.00;74.67
